チューリッヒ の空港の天気 - METARとTAF

チューリヒ国際空港 ( LSZH / ZRH ) - スイス チューリッヒ
飛行場実況気象(Metar)
観測時間02/17 15:50 CET (02/17 14:50 UTC)
風向・風速不定 1m/s
視程10km以上
天気現象
なし
気温15℃
湿度36%
気圧1024hPa
METARLSZH 171450Z VRB02KT CAVOK 15/M00 Q1024 NOSIG
過去の天気等 Google飛行場航空写真 Wunderground天気予報

過去48時間のMETAR

飛行場予報(TAF)
発表時間: 2/17 15:25 CET (2/17 14:25 UTC)
予報対象時間: 17日16時 CET ~ 18日22時 CET
風向・風速不定 2m/s
視程10km以上
なし
18日3時 CET ~ 18日6時 CET に徐々に
視程7000m
なし
18日6時 CET から 確率 30% で
視程4000m
天気現象地霧
18日9時 CET ~ 18日12時 CET に徐々に
視程10km以上
なし
TAF LSZH 171425Z 1715/1821 VRB03KT CAVOK TX15/1715Z TNM04/1805Z TX14/1815Z
BECMG 1802/1805 7000 NSC
PROB30 1805/1808 4000 MIFG
BECMG 1808/1811 CAVOK